Time;durP1;ratioP1;P1;durP2;ratioP2;P2;SDS_P1;SDS_P2;PMS_P1;PMS_P2;Temp;Humidity;BMP_temperature;BMP_pressure;BME280_temperature;BME280_humidity;BME280_pressure;Samples;Min_cycle;Max_cycle;Signal;HPM_P1;HPM_P2
2024/01/29 00:00:23;;;;;;;1.43;1.00;;;;;;;1.44;58.47;102457.44;5016375;27;97176;-50
2024/01/29 00:02:49;;;;;;;1.63;1.53;;;;;;;1.44;58.42;102457.44;5014188;27;97013;-50
2024/01/29 00:05:14;;;;;;;1.67;1.47;;;;;;;1.42;58.37;102457.09;5019925;27;96871;-50
2024/01/29 00:07:40;;;;;;;1.43;1.33;;;;;;;1.39;58.35;102455.94;5019193;27;99216;-50
2024/01/29 00:10:06;;;;;;;2.17;1.23;;;;;;;1.40;58.41;102451.28;5014605;27;97533;-49
2024/01/29 00:12:32;;;;;;;2.23;1.20;;;;;;;1.38;58.54;102448.19;5016189;27;96983;-50
2024/01/29 00:14:57;;;;;;;1.47;1.33;;;;;;;1.34;58.70;102444.75;5020487;27;97263;-49
2024/01/29 00:17:22;;;;;;;1.93;1.43;;;;;;;1.33;58.85;102443.19;5016394;27;96886;-50
2024/01/29 00:19:48;;;;;;;1.67;1.20;;;;;;;1.33;58.56;102440.44;5017228;27;103959;-50
2024/01/29 00:22:13;;;;;;;1.40;1.30;;;;;;;1.32;58.82;102441.66;5015812;27;97421;-49
2024/01/29 00:24:38;;;;;;;2.03;1.37;;;;;;;1.28;58.83;102438.19;5017125;27;97052;-50
2024/01/29 00:27:04;;;;;;;1.80;1.47;;;;;;;1.29;58.96;102440.50;5017831;27;97487;-50
2024/01/29 00:29:29;;;;;;;1.00;1.00;;;;;;;1.27;58.59;102439.38;5013708;27;106919;-49
2024/01/29 00:31:54;;;;;;;1.90;1.20;;;;;;;1.25;58.66;102444.47;5015408;27;96680;-50
2024/01/29 00:34:20;;;;;;;1.30;1.20;;;;;;;1.21;58.87;102439.06;5018693;27;97457;-50
2024/01/29 00:36:45;;;;;;;1.00;1.00;;;;;;;1.19;58.62;102430.53;5014425;27;97833;-50
2024/01/29 00:39:11;;;;;;;1.50;1.10;;;;;;;1.16;58.95;102431.31;5014871;27;97830;-49
2024/01/29 00:41:36;;;;;;;1.40;1.30;;;;;;;1.14;58.80;102428.22;5015170;27;97045;-49
2024/01/29 00:44:02;;;;;;;1.10;0.93;;;;;;;1.11;58.88;102434.50;5020072;27;97010;-49
2024/01/29 00:46:27;;;;;;;2.50;1.20;;;;;;;1.11;58.79;102433.75;5013732;27;97026;-49
2024/01/29 00:48:53;;;;;;;1.10;1.00;;;;;;;1.05;58.84;102436.13;5014771;27;100426;-50
2024/01/29 00:51:18;;;;;;;1.57;1.00;;;;;;;1.03;58.79;102428.38;5014950;27;96949;-50
2024/01/29 00:53:43;;;;;;;1.57;1.23;;;;;;;1.02;58.83;102421.34;5017069;27;97007;-50
2024/01/29 00:56:09;;;;;;;1.10;1.10;;;;;;;1.03;58.74;102428.38;5017039;27;97036;-49
2024/01/29 00:58:34;;;;;;;1.80;1.40;;;;;;;1.02;59.02;102421.34;5017515;27;97185;-50
2024/01/29 01:00:59;;;;;;;1.37;1.00;;;;;;;1.02;58.84;102432.25;5014111;27;96651;-49
2024/01/29 01:03:25;;;;;;;1.00;0.90;;;;;;;1.00;59.09;102428.38;5016318;27;97256;-49
2024/01/29 01:05:50;;;;;;;1.53;1.17;;;;;;;0.99;59.26;102426.84;5012690;27;97241;-50
2024/01/29 01:08:16;;;;;;;1.10;1.00;;;;;;;0.99;58.79;102424.91;5013273;27;98179;-50
2024/01/29 01:10:42;;;;;;;0.93;0.83;;;;;;;0.98;58.92;102415.19;5014043;27;97308;-49
2024/01/29 01:13:07;;;;;;;1.10;1.03;;;;;;;1.01;59.01;102419.03;5017549;27;97126;-49
2024/01/29 01:15:33;;;;;;;1.30;1.20;;;;;;;1.02;59.15;102417.88;5017843;27;97144;-49
2024/01/29 01:17:59;;;;;;;1.33;1.10;;;;;;;1.02;59.03;102409.69;5017389;27;97544;-49
2024/01/29 01:20:25;;;;;;;3.47;1.10;;;;;;;1.02;59.21;102415.91;5016261;27;97063;-50
2024/01/29 01:22:50;;;;;;;2.10;1.13;;;;;;;1.04;59.19;102404.63;5014929;27;96937;-50
2024/01/29 01:25:16;;;;;;;2.43;0.83;;;;;;;1.03;58.97;102412.00;5013898;27;97245;-50
2024/01/29 01:27:41;;;;;;;1.23;0.90;;;;;;;1.04;58.86;102399.16;5015642;27;97464;-50
2024/01/29 01:30:07;;;;;;;1.47;1.17;;;;;;;1.03;59.02;102412.00;5015746;27;97043;-49
2024/01/29 01:32:32;;;;;;;0.93;0.90;;;;;;;1.02;59.12;102401.53;5016791;27;97021;-50
2024/01/29 01:34:58;;;;;;;1.30;1.20;;;;;;;0.99;58.93;102407.78;5014311;27;97226;-50
2024/01/29 01:37:23;;;;;;;1.83;1.30;;;;;;;0.94;59.14;102410.94;5018544;27;96892;-50
2024/01/29 01:39:52;;;;;;;1.30;1.10;;;;;;;0.92;58.99;102413.31;5022441;27;96739;-50
2024/01/29 01:42:21;;;;;;;0.70;0.60;;;;;;;0.87;58.99;102411.78;5013361;27;96679;-50
2024/01/29 01:44:46;;;;;;;1.30;1.10;;;;;;;0.86;59.30;102413.00;5015531;27;97176;-50
2024/01/29 01:47:12;;;;;;;1.20;1.03;;;;;;;0.84;58.94;102412.63;5016711;27;99052;-50
2024/01/29 01:49:37;;;;;;;2.60;1.20;;;;;;;0.80;58.90;102414.59;5015827;27;97504;-50
2024/01/29 01:52:04;;;;;;;1.90;1.30;;;;;;;0.82;59.05;102412.25;5012991;27;97132;-50
2024/01/29 01:54:30;;;;;;;1.07;0.93;;;;;;;0.81;59.19;102404.47;5016648;27;96891;-49
2024/01/29 01:56:57;;;;;;;2.20;1.10;;;;;;;0.79;59.23;102401.38;5015385;27;97202;-50
2024/01/29 01:59:24;;;;;;;1.07;0.97;;;;;;;0.80;59.47;102402.94;5016355;27;96970;-50
2024/01/29 02:01:49;;;;;;;1.10;1.00;;;;;;;0.80;59.28;102397.50;5015049;27;97369;-49
2024/01/29 02:04:15;;;;;;;0.90;0.90;;;;;;;0.80;59.53;102400.97;5017475;27;96888;-50
2024/01/29 02:06:41;;;;;;;1.07;0.97;;;;;;;0.79;59.11;102395.94;5014605;27;97478;-50
2024/01/29 02:09:07;;;;;;;1.10;1.00;;;;;;;0.79;59.14;102383.09;5012037;27;97218;-50
2024/01/29 02:11:33;;;;;;;2.60;1.03;;;;;;;0.81;59.32;102382.69;5016798;27;96712;-50
2024/01/29 02:13:58;;;;;;;2.33;0.97;;;;;;;0.82;59.43;102379.56;5013035;27;96692;-50
2024/01/29 02:16:23;;;;;;;0.90;0.90;;;;;;;0.83;59.32;102370.19;5013050;27;96900;-49
2024/01/29 02:18:49;;;;;;;2.60;0.90;;;;;;;0.82;59.43;102376.84;5014095;27;97135;-50
2024/01/29 02:21:14;;;;;;;1.57;0.90;;;;;;;0.81;59.33;102371.78;5016750;27;97026;-49
2024/01/29 02:23:43;;;;;;;3.00;1.00;;;;;;;0.82;59.37;102379.56;5015195;27;98319;-50
2024/01/29 02:26:09;;;;;;;1.20;0.97;;;;;;;0.77;59.29;102377.28;5017081;27;97622;-50
2024/01/29 02:28:34;;;;;;;1.70;1.10;;;;;;;0.77;59.47;102379.22;5015430;27;96751;-50
2024/01/29 02:30:59;;;;;;;2.00;1.20;;;;;;;0.77;59.39;102376.50;5012101;27;96851;-50
2024/01/29 02:33:25;;;;;;;1.47;0.83;;;;;;;0.76;59.33;102381.16;5014879;27;96780;-50
2024/01/29 02:35:50;;;;;;;1.30;1.10;;;;;;;0.76;59.39;102383.16;5017216;27;97206;-50
2024/01/29 02:38:15;;;;;;;1.10;0.90;;;;;;;0.76;59.21;102386.63;5012731;27;97127;-49
2024/01/29 02:40:41;;;;;;;1.20;1.10;;;;;;;0.79;59.14;102391.28;5017706;27;97133;-50
2024/01/29 02:43:06;;;;;;;1.20;1.10;;;;;;;0.79;59.16;102385.03;5014571;27;97875;-50
2024/01/29 02:45:31;;;;;;;1.10;0.80;;;;;;;0.75;59.13;102390.53;5017418;27;96784;-50
2024/01/29 02:47:57;;;;;;;1.17;0.73;;;;;;;0.71;59.22;102395.25;5014085;27;96990;-50
2024/01/29 02:50:26;;;;;;;0.90;0.80;;;;;;;0.70;59.25;102395.63;5014859;27;97384;-50
2024/01/29 02:52:51;;;;;;;1.10;1.00;;;;;;;0.66;59.16;102394.91;5013412;27;97057;-50
2024/01/29 02:55:17;;;;;;;1.20;1.10;;;;;;;0.65;59.10;102388.69;5015230;27;99056;-50
2024/01/29 02:57:42;;;;;;;2.10;1.33;;;;;;;0.63;59.44;102384.84;5016012;27;97131;-50
2024/01/29 03:00:08;;;;;;;2.60;1.20;;;;;;;0.58;59.33;102385.28;5016082;27;97014;-50
2024/01/29 03:02:33;;;;;;;2.40;1.20;;;;;;;0.56;59.15;102382.97;5013417;27;96748;-50
2024/01/29 03:04:59;;;;;;;0.80;0.80;;;;;;;0.52;59.12;102387.66;5015130;27;97290;-50
2024/01/29 03:07:24;;;;;;;1.90;1.03;;;;;;;0.47;59.03;102392.78;5016674;27;96956;-49
2024/01/29 03:09:49;;;;;;;1.43;1.00;;;;;;;0.44;59.29;102402.53;5012168;27;97097;-50
2024/01/29 03:12:15;;;;;;;2.10;0.90;;;;;;;0.41;59.34;102402.56;5013770;27;107885;-50
2024/01/29 03:14:41;;;;;;;0.90;0.87;;;;;;;0.39;59.27;102394.03;5016701;27;101341;-50
2024/01/29 03:17:07;;;;;;;0.90;0.90;;;;;;;0.37;59.20;102401.84;5014365;27;97148;-50
2024/01/29 03:19:32;;;;;;;1.00;0.80;;;;;;;0.30;59.27;102403.41;5015732;27;97069;-49
2024/01/29 03:21:58;;;;;;;1.20;1.00;;;;;;;0.26;59.64;102396.47;5013083;27;97355;-50
2024/01/29 03:24:23;;;;;;;1.17;1.10;;;;;;;0.28;59.32;102403.06;5014297;27;104096;-50
2024/01/29 03:26:48;;;;;;;1.37;1.00;;;;;;;0.33;59.53;102399.13;5013592;27;96947;-50
2024/01/29 03:29:14;;;;;;;0.90;0.90;;;;;;;0.37;59.41;102412.72;5013682;27;97069;-50
2024/01/29 03:31:39;;;;;;;1.20;1.10;;;;;;;0.37;59.66;102402.59;5013663;27;97455;-50
2024/01/29 03:34:04;;;;;;;0.83;0.83;;;;;;;0.37;59.51;102399.88;5018148;27;99228;-50
2024/01/29 03:36:30;;;;;;;0.90;0.90;;;;;;;0.38;59.43;102406.09;5018219;27;96975;-50
2024/01/29 03:38:55;;;;;;;1.27;1.17;;;;;;;0.35;59.53;102402.22;5011317;27;96704;-49
2024/01/29 03:41:20;;;;;;;2.70;0.80;;;;;;;0.32;59.42;102394.88;5014294;27;97738;-49
2024/01/29 03:43:45;;;;;;;1.33;0.73;;;;;;;0.30;59.61;102394.47;5016262;27;100814;-49
2024/01/29 03:46:11;;;;;;;1.43;1.10;;;;;;;0.31;59.84;102390.59;5014014;27;97441;-50
2024/01/29 03:48:36;;;;;;;0.80;0.70;;;;;;;0.33;59.73;102390.97;5012832;27;97313;-50
2024/01/29 03:51:02;;;;;;;1.47;1.23;;;;;;;0.35;59.84;102388.59;5014717;27;98427;-49
2024/01/29 03:53:27;;;;;;;1.13;0.80;;;;;;;0.35;59.30;102377.72;5013767;27;98432;-49
2024/01/29 03:55:54;;;;;;;0.80;0.80;;;;;;;0.34;59.37;102392.53;5014952;27;97003;-50
2024/01/29 03:58:20;;;;;;;0.90;0.80;;;;;;;0.32;59.57;102388.66;5013670;27;96771;-50
2024/01/29 04:00:45;;;;;;;1.30;1.20;;;;;;;0.30;59.51;102397.97;5013875;27;97209;-50
2024/01/29 04:03:11;;;;;;;1.10;0.70;;;;;;;0.31;59.35;102390.59;5016768;27;97378;-50
2024/01/29 04:05:36;;;;;;;1.20;0.80;;;;;;;0.28;59.62;102386.72;5012770;27;97572;-50
2024/01/29 04:08:02;;;;;;;1.00;0.90;;;;;;;0.27;59.52;102389.84;5014883;27;97400;-50
2024/01/29 04:10:27;;;;;;;2.03;1.10;;;;;;;0.27;59.35;102385.19;5009223;27;97319;-50
2024/01/29 04:12:52;;;;;;;1.93;0.87;;;;;;;0.28;59.57;102384.00;5013794;27;97209;-50
2024/01/29 04:15:18;;;;;;;1.33;0.80;;;;;;;0.29;59.42;102379.34;5017376;27;96747;-50
2024/01/29 04:17:43;;;;;;;0.93;0.90;;;;;;;0.28;59.29;102385.94;5016120;27;97384;-50
2024/01/29 04:20:09;;;;;;;2.03;0.83;;;;;;;0.28;59.49;102377.78;5016449;27;97449;-50
2024/01/29 04:22:34;;;;;;;1.40;1.20;;;;;;;0.26;59.61;102378.19;5018537;27;97646;-50
2024/01/29 04:25:02;;;;;;;1.00;0.90;;;;;;;0.25;59.51;102381.31;5017864;27;97708;-50
2024/01/29 04:27:27;;;;;;;0.83;0.77;;;;;;;0.30;59.50;102376.19;5015969;27;97244;-51
2024/01/29 04:29:53;;;;;;;1.20;0.90;;;;;;;0.31;59.35;102374.25;5013996;27;101207;-50
2024/01/29 04:32:18;;;;;;;1.13;0.87;;;;;;;0.32;59.63;102377.75;5018245;27;108302;-50
2024/01/29 04:34:43;;;;;;;0.90;0.80;;;;;;;0.33;59.44;102374.63;5013387;27;98823;-50
2024/01/29 04:37:09;;;;;;;1.23;1.10;;;;;;;0.34;59.47;102369.97;5015735;27;97860;-50
2024/01/29 04:39:39;;;;;;;2.70;0.93;;;;;;;0.31;59.28;102371.53;5015172;27;97530;-50
2024/01/29 04:42:05;;;;;;;1.00;0.90;;;;;;;0.28;59.49;102372.34;5019810;27;97081;-50
2024/01/29 04:44:31;;;;;;;1.17;1.07;;;;;;;0.29;59.24;102368.44;5020461;27;96678;-50
2024/01/29 04:47:00;;;;;;;0.90;0.90;;;;;;;0.30;59.20;102403.41;5020394;27;96718;-50
2024/01/29 04:49:26;;;;;;;1.30;0.70;;;;;;;0.30;59.39;102373.47;5017907;27;97613;-50
2024/01/29 04:51:51;;;;;;;0.97;0.87;;;;;;;0.32;59.38;102373.09;5014283;27;97105;-50
2024/01/29 04:54:17;;;;;;;1.13;1.03;;;;;;;0.32;59.74;102373.09;5010347;27;97243;-50
2024/01/29 04:56:42;;;;;;;0.70;0.70;;;;;;;0.33;59.77;102366.47;5014407;27;96830;-50
2024/01/29 04:59:08;;;;;;;0.80;0.80;;;;;;;0.34;59.64;102365.28;5014507;27;97490;-50
2024/01/29 05:01:33;;;;;;;3.23;0.73;;;;;;;0.35;59.51;102372.28;5017064;27;97115;-50
2024/01/29 05:03:58;;;;;;;5.37;0.97;;;;;;;0.35;59.66;102374.22;5011973;27;97777;-50
2024/01/29 05:06:24;;;;;;;1.10;1.00;;;;;;;0.35;59.62;102371.50;5018682;27;96692;-50
2024/01/29 05:08:49;;;;;;;1.83;0.73;;;;;;;0.36;59.53;102364.88;5019310;27;109087;-50
2024/01/29 05:11:14;;;;;;;1.07;0.73;;;;;;;0.36;59.64;102367.59;5018980;27;101286;-50
2024/01/29 05:13:40;;;;;;;0.90;0.90;;;;;;;0.36;59.72;102368.38;5018266;27;96973;-50
2024/01/29 05:16:06;;;;;;;2.23;1.00;;;;;;;0.38;59.72;102371.47;5017922;27;96984;-50
2024/01/29 05:18:32;;;;;;;1.43;0.80;;;;;;;0.37;59.55;102369.91;5016223;27;97754;-50
2024/01/29 05:20:57;;;;;;;0.90;0.70;;;;;;;0.37;59.50;102369.16;5012837;27;96625;-50
2024/01/29 05:23:23;;;;;;;1.40;1.03;;;;;;;0.36;59.51;102373.84;5015066;27;96830;-50
2024/01/29 05:25:48;;;;;;;1.20;1.10;;;;;;;0.35;59.80;102371.50;5011961;27;97199;-50
2024/01/29 05:28:13;;;;;;;1.67;0.77;;;;;;;0.33;59.30;102366.47;5017228;27;97481;-50
2024/01/29 05:30:39;;;;;;;1.43;0.90;;;;;;;0.34;59.56;102373.47;5015481;27;97092;-50
2024/01/29 05:33:04;;;;;;;1.07;0.97;;;;;;;0.36;59.58;102373.84;5014308;27;96921;-50
2024/01/29 05:35:29;;;;;;;0.77;0.77;;;;;;;0.36;59.81;102368.38;5018883;27;97212;-50
2024/01/29 05:37:55;;;;;;;1.00;0.93;;;;;;;0.35;59.37;102379.66;5014747;27;98214;-50
2024/01/29 05:40:20;;;;;;;0.80;0.80;;;;;;;0.35;59.68;102376.94;5016554;27;98294;-50
2024/01/29 05:42:52;;;;;;;1.23;0.87;;;;;;;0.36;59.62;102376.56;5015102;27;97177;-50
2024/01/29 05:45:17;;;;;;;1.53;0.70;;;;;;;0.34;59.57;102373.47;5014216;27;96638;-50
2024/01/29 05:47:43;;;;;;;0.50;0.50;;;;;;;0.28;59.67;102367.66;5015501;27;97522;-50
2024/01/29 05:50:08;;;;;;;1.10;0.70;;;;;;;0.28;59.66;102377.78;5018764;27;105515;-50
2024/01/29 05:52:35;;;;;;;1.00;0.90;;;;;;;0.30;59.64;102368.03;5017334;27;100024;-50
2024/01/29 05:55:01;;;;;;;1.63;0.90;;;;;;;0.29;59.88;102376.63;5017866;27;96786;-50
2024/01/29 05:57:27;;;;;;;0.70;0.60;;;;;;;0.29;59.60;102369.22;5015668;27;97318;-50
2024/01/29 05:59:53;;;;;;;0.67;0.67;;;;;;;0.31;59.48;102371.53;5015834;27;96807;-50
2024/01/29 06:02:18;;;;;;;1.90;0.90;;;;;;;0.29;59.36;102373.88;5015580;27;97087;-50
2024/01/29 06:04:43;;;;;;;1.10;0.90;;;;;;;0.28;59.39;102369.59;5015163;27;97348;-50
2024/01/29 06:07:09;;;;;;;1.97;1.10;;;;;;;0.26;59.47;102386.34;5014789;27;97720;-50
2024/01/29 06:09:34;;;;;;;0.83;0.70;;;;;;;0.26;59.43;102370.03;5015817;27;97587;-50
2024/01/29 06:11:59;;;;;;;1.47;1.00;;;;;;;0.27;59.63;102368.06;5014598;27;96932;-50
2024/01/29 06:14:26;;;;;;;1.10;0.93;;;;;;;0.24;59.33;102374.31;5018327;27;97028;-50
2024/01/29 06:16:52;;;;;;;1.53;0.97;;;;;;;0.21;59.39;102367.72;5016329;27;98822;-50
2024/01/29 06:19:18;;;;;;;0.90;0.73;;;;;;;0.19;59.24;102380.97;5015315;27;97080;-50
2024/01/29 06:21:44;;;;;;;0.97;0.77;;;;;;;0.18;59.17;102370.50;5018749;27;96923;-50
2024/01/29 06:24:10;;;;;;;1.10;0.80;;;;;;;0.18;59.28;102381.38;5016099;27;96978;-50
2024/01/29 06:26:37;;;;;;;1.10;1.00;;;;;;;0.17;59.38;102380.59;5015273;27;97207;-50
2024/01/29 06:29:03;;;;;;;1.20;0.80;;;;;;;0.17;59.39;102383.31;5012509;27;97162;-50
2024/01/29 06:31:28;;;;;;;0.90;0.90;;;;;;;0.20;59.39;102387.97;5013191;27;96680;-50
2024/01/29 06:33:54;;;;;;;1.17;0.90;;;;;;;0.20;59.18;102379.03;5015365;27;96948;-50
2024/01/29 06:36:20;;;;;;;1.10;1.10;;;;;;;0.22;59.33;102387.56;5014803;27;96625;-50
2024/01/29 06:38:46;;;;;;;1.00;0.90;;;;;;;0.20;59.22;102377.09;5011854;27;97407;-49
2024/01/29 06:41:22;;;;;;;0.67;0.67;;;;;;;0.23;59.06;102391.84;5014320;27;97165;-49
2024/01/29 06:43:48;;;;;;;0.90;0.90;;;;;;;0.22;59.30;102377.44;5015801;27;96638;-49
2024/01/29 06:46:13;;;;;;;0.80;0.80;;;;;;;0.21;59.20;102383.31;5017629;27;98384;-49
2024/01/29 06:48:38;;;;;;;2.00;1.03;;;;;;;0.23;59.10;102394.56;5019540;27;96906;-50
2024/01/29 06:51:04;;;;;;;2.30;1.10;;;;;;;0.22;59.14;102390.28;5013397;27;99639;-49
2024/01/29 06:53:29;;;;;;;1.20;1.10;;;;;;;0.22;59.00;102395.72;5010897;27;97198;-49
2024/01/29 06:55:59;;;;;;;0.90;0.90;;;;;;;0.24;59.20;102388.72;5014825;27;96711;-50
2024/01/29 06:58:24;;;;;;;2.90;1.17;;;;;;;0.24;59.11;102391.44;5010716;27;97560;-50
2024/01/29 07:00:50;;;;;;;1.00;0.80;;;;;;;0.27;59.20;102401.53;5015765;27;96603;-50
2024/01/29 07:03:16;;;;;;;0.87;0.87;;;;;;;0.27;59.50;102390.63;5012359;27;97156;-49
2024/01/29 07:05:41;;;;;;;1.90;0.90;;;;;;;0.27;59.00;102390.63;5016674;27;97049;-49
2024/01/29 07:08:06;;;;;;;0.83;0.83;;;;;;;0.28;59.29;102403.06;5015054;27;96922;-49
2024/01/29 07:10:32;;;;;;;1.37;0.80;;;;;;;0.30;59.15;102403.41;5012978;27;96932;-49
2024/01/29 07:12:57;;;;;;;1.30;1.20;;;;;;;0.29;59.38;102406.56;5014262;27;96619;-49
2024/01/29 07:15:22;;;;;;;1.00;0.90;;;;;;;0.32;59.25;102405.75;5013929;27;97034;-49
2024/01/29 07:17:48;;;;;;;1.33;0.90;;;;;;;0.35;59.29;102401.44;5014353;27;106058;-49
2024/01/29 07:20:13;;;;;;;1.00;1.00;;;;;;;0.37;59.52;102391.69;5011398;27;97041;-49
2024/01/29 07:22:39;;;;;;;1.30;0.80;;;;;;;0.39;59.45;102397.50;5018205;27;96900;-50
2024/01/29 07:25:05;;;;;;;2.40;1.07;;;;;;;0.43;59.17;102406.44;5011651;27;98031;-49
2024/01/29 07:27:31;;;;;;;1.20;1.10;;;;;;;0.44;59.31;102407.97;5013124;27;98758;-49
2024/01/29 07:29:56;;;;;;;0.87;0.80;;;;;;;0.42;59.37;102415.78;5013845;27;96926;-49
2024/01/29 07:32:21;;;;;;;1.00;0.83;;;;;;;0.46;59.16;102411.06;5013496;27;96662;-49
2024/01/29 07:34:47;;;;;;;0.87;0.87;;;;;;;0.50;58.99;102413.75;5012163;27;97545;-50
2024/01/29 07:37:12;;;;;;;1.90;0.90;;;;;;;0.52;59.37;102412.16;5011704;27;98413;-50
2024/01/29 07:39:38;;;;;;;2.30;1.00;;;;;;;0.55;59.32;102413.31;5012092;27;96678;-50
2024/01/29 07:42:04;;;;;;;0.80;0.80;;;;;;;0.59;59.12;102414.81;5013371;27;97152;-49
2024/01/29 07:44:29;;;;;;;0.90;0.80;;;;;;;0.61;59.44;102412.47;5014537;27;97437;-49
2024/01/29 07:46:54;;;;;;;1.20;0.70;;;;;;;0.66;59.31;102411.25;5009595;27;97744;-49
2024/01/29 07:49:20;;;;;;;1.43;0.80;;;;;;;0.71;59.27;102408.09;5014922;27;97050;-49
2024/01/29 07:51:45;;;;;;;0.93;0.83;;;;;;;0.76;59.41;102407.66;5015664;27;97222;-49
2024/01/29 07:54:12;;;;;;;1.37;1.00;;;;;;;0.79;59.08;102404.13;5017394;27;96935;-49
2024/01/29 07:56:39;;;;;;;1.27;0.90;;;;;;;0.86;59.57;102401.31;5014784;27;97070;-49
2024/01/29 07:59:05;;;;;;;1.20;0.80;;;;;;;0.91;59.31;102404.34;5017022;27;96708;-50
2024/01/29 08:01:30;;;;;;;0.93;0.70;;;;;;;0.95;59.37;102407.06;5014307;27;96903;-50
2024/01/29 08:03:55;;;;;;;0.87;0.87;;;;;;;0.98;59.31;102404.28;5017257;27;102134;-49
2024/01/29 08:06:21;;;;;;;1.00;0.90;;;;;;;1.02;59.42;102399.56;5015625;27;97279;-50
2024/01/29 08:08:46;;;;;;;1.40;0.90;;;;;;;1.05;59.25;102401.47;5020388;27;98244;-50
2024/01/29 08:11:12;;;;;;;1.83;0.60;;;;;;;1.11;59.04;102409.22;5015706;27;96974;-49
2024/01/29 08:13:38;;;;;;;1.00;0.90;;;;;;;1.11;59.09;102403.75;5016259;27;97792;-49
2024/01/29 08:16:03;;;;;;;0.90;0.90;;;;;;;1.09;59.09;102406.88;5017873;27;96624;-49
2024/01/29 08:18:29;;;;;;;0.97;0.60;;;;;;;1.11;59.29;102407.22;5018267;27;96915;-49
2024/01/29 08:20:55;;;;;;;0.80;0.73;;;;;;;1.10;59.24;102418.56;5019147;27;97032;-49
2024/01/29 08:23:23;;;;;;;1.67;0.80;;;;;;;1.12;59.13;102414.25;5016644;27;100476;-50
2024/01/29 08:25:48;;;;;;;1.00;0.80;;;;;;;1.13;59.32;102415.03;5015160;27;97264;-50
2024/01/29 08:28:14;;;;;;;0.87;0.87;;;;;;;1.12;59.22;102422.41;5016285;27;97495;-50
2024/01/29 08:30:39;;;;;;;0.90;0.70;;;;;;;1.15;59.24;102420.84;5020607;27;96962;-50
2024/01/29 08:33:04;;;;;;;0.70;0.70;;;;;;;1.20;59.41;102420.38;5015240;27;105640;-50
2024/01/29 08:35:29;;;;;;;1.67;0.67;;;;;;;1.25;59.42;102419.91;5015829;27;97213;-50
2024/01/29 08:37:55;;;;;;;0.80;0.70;;;;;;;1.29;59.35;102415.97;5014150;27;97095;-50
2024/01/29 08:40:20;;;;;;;0.90;0.70;;;;;;;1.33;59.47;102413.19;5017120;27;96788;-50
2024/01/29 08:42:47;;;;;;;0.80;0.80;;;;;;;1.37;59.27;102414.69;5015047;27;98511;-50
2024/01/29 08:45:17;;;;;;;0.73;0.70;;;;;;;1.44;59.61;102414.59;5018094;27;97254;-50
2024/01/29 08:47:43;;;;;;;0.70;0.70;;;;;;;1.48;59.25;102409.13;5018754;27;97289;-50
2024/01/29 08:50:08;;;;;;;0.80;0.70;;;;;;;1.53;59.56;102414.09;5017383;27;97176;-50
2024/01/29 08:52:33;;;;;;;1.17;0.87;;;;;;;1.60;59.31;102417.50;5016452;27;98319;-50
2024/01/29 08:54:59;;;;;;;1.13;0.90;;;;;;;1.69;59.43;102441.53;5015107;27;108451;-50
2024/01/29 08:57:24;;;;;;;0.80;0.80;;;;;;;1.77;59.66;102405.56;5015225;27;96977;-50
2024/01/29 08:59:49;;;;;;;1.13;0.70;;;;;;;1.83;59.57;102401.16;5020709;27;96869;-50
2024/01/29 09:02:15;;;;;;;1.53;0.90;;;;;;;1.96;59.35;102417.00;5019087;27;97770;-50
2024/01/29 09:04:41;;;;;;;1.60;0.80;;;;;;;2.04;59.36;102423.88;5019795;27;98262;-50
2024/01/29 09:07:06;;;;;;;1.87;0.87;;;;;;;2.15;59.39;102414.34;5014795;27;97081;-50
2024/01/29 09:09:31;;;;;;;0.90;0.90;;;;;;;2.24;59.02;102409.13;5016139;27;97362;-50
2024/01/29 09:11:57;;;;;;;1.23;1.00;;;;;;;2.34;59.31;102416.38;5015240;27;100304;-50
2024/01/29 09:14:24;;;;;;;1.20;1.10;;;;;;;2.43;59.39;102407.63;5018254;27;97980;-50
2024/01/29 09:16:49;;;;;;;1.17;1.17;;;;;;;2.54;59.18;102410.94;5016528;27;97052;-50
2024/01/29 09:19:16;;;;;;;1.20;0.80;;;;;;;2.68;58.90;102418.88;5018954;27;97056;-51
2024/01/29 09:21:50;;;;;;;1.10;1.10;;;;;;;2.83;58.59;102422.13;5019012;27;97425;-50
2024/01/29 09:24:17;;;;;;;1.00;1.00;;;;;;;2.98;58.95;102421.44;5015209;27;100153;-50
2024/01/29 09:26:42;;;;;;;0.93;0.90;;;;;;;3.16;59.07;102415.63;5015999;27;97606;-50
2024/01/29 09:29:08;;;;;;;1.90;1.33;;;;;;;3.31;58.58;102422.34;5018118;27;97042;-50
2024/01/29 09:31:34;;;;;;;1.17;0.93;;;;;;;3.43;58.28;102418.16;5014764;27;98585;-50
2024/01/29 09:33:59;;;;;;;1.20;1.10;;;;;;;3.56;58.29;102416.31;5019065;27;97417;-50
2024/01/29 09:36:25;;;;;;;1.13;0.77;;;;;;;3.69;58.05;102417.97;5018963;27;96718;-50
2024/01/29 09:38:50;;;;;;;1.10;1.00;;;;;;;3.82;57.63;102412.59;5018690;27;96943;-50
2024/01/29 09:41:15;;;;;;;0.80;0.80;;;;;;;3.97;57.62;102409.09;5013293;27;107338;-50
2024/01/29 09:43:45;;;;;;;1.00;0.80;;;;;;;4.12;57.56;102409.53;5018261;27;97416;-50
2024/01/29 09:46:14;;;;;;;1.47;1.00;;;;;;;4.25;57.77;102413.13;5018460;27;97377;-50
2024/01/29 09:48:41;;;;;;;1.10;1.00;;;;;;;4.38;57.08;102422.19;5019452;27;97439;-50
2024/01/29 09:51:12;;;;;;;0.97;0.63;;;;;;;4.48;57.40;102412.13;5013810;27;97136;-50
2024/01/29 09:53:38;;;;;;;1.17;0.73;;;;;;;4.63;57.13;102405.06;5014230;27;96719;-50
2024/01/29 09:56:03;;;;;;;0.90;0.80;;;;;;;4.74;57.15;102419.25;5014838;27;96994;-51
2024/01/29 09:58:30;;;;;;;1.40;0.97;;;;;;;4.86;57.09;102417.81;5016763;27;97180;-50
2024/01/29 10:00:57;;;;;;;1.30;1.20;;;;;;;4.97;56.79;102432.78;5016460;27;97189;-50
2024/01/29 10:03:29;;;;;;;1.90;1.43;;;;;;;5.11;56.38;102434.34;5015475;27;97458;-50
2024/01/29 10:05:56;;;;;;;3.23;1.10;;;;;;;5.26;56.36;102438.22;5015306;27;96751;-51
2024/01/29 10:08:23;;;;;;;0.87;0.87;;;;;;;5.39;56.45;102444.50;5019285;27;96672;-50
2024/01/29 10:10:49;;;;;;;1.40;1.13;;;;;;;5.50;56.09;102447.69;5015304;27;98655;-50
2024/01/29 10:13:14;;;;;;;1.80;1.23;;;;;;;5.62;56.18;102451.66;5016448;27;98301;-50
2024/01/29 10:15:43;;;;;;;0.90;0.90;;;;;;;5.73;55.74;102457.63;5014616;27;96642;-50
2024/01/29 10:18:12;;;;;;;1.30;0.73;;;;;;;5.81;55.53;102473.44;5013877;27;97261;-51
2024/01/29 10:20:38;;;;;;;1.23;1.20;;;;;;;5.94;55.47;102465.97;5014259;27;96956;-50
2024/01/29 10:23:04;;;;;;;2.10;1.37;;;;;;;6.03;55.46;102459.81;5019017;27;96910;-50
2024/01/29 10:25:31;;;;;;;1.83;1.30;;;;;;;6.13;55.28;102461.47;5013232;27;97063;-50
2024/01/29 10:28:12;;;;;;;2.90;1.20;;;;;;;6.22;54.59;102472.53;5016234;27;97072;-50
2024/01/29 10:30:41;;;;;;;1.77;1.20;;;;;;;6.29;55.11;102462.09;5013779;27;98607;-50
2024/01/29 10:33:07;;;;;;;1.83;1.27;;;;;;;6.37;55.08;102473.63;5014583;27;97046;-51
2024/01/29 10:35:33;;;;;;;1.50;1.40;;;;;;;6.47;55.10;102460.72;5012140;27;97405;-51
2024/01/29 10:38:08;;;;;;;5.33;0.90;;;;;;;6.53;54.33;102459.72;5014927;27;96835;-50
2024/01/29 10:40:34;;;;;;;1.17;1.07;;;;;;;6.59;55.18;102462.69;5017423;27;97079;-50
2024/01/29 10:43:01;;;;;;;4.33;1.23;;;;;;;6.64;54.83;102462.13;5014621;27;97635;-50
2024/01/29 10:45:27;;;;;;;1.03;0.93;;;;;;;6.72;54.78;102466.19;5013427;27;97283;-50
2024/01/29 10:48:15;;;;;;;1.07;0.97;;;;;;;6.81;53.65;102464.28;5015582;27;97183;-50
2024/01/29 10:50:41;;;;;;;1.10;1.00;;;;;;;6.89;54.55;102457.34;5016878;27;97645;-51
2024/01/29 10:53:07;;;;;;;2.43;1.40;;;;;;;6.95;54.44;102465.78;5015017;27;97195;-51
2024/01/29 10:55:34;;;;;;;2.27;1.50;;;;;;;7.02;54.44;102469.06;5014863;27;97372;-51
2024/01/29 10:58:01;;;;;;;1.77;1.60;;;;;;;7.07;54.14;102467.72;5017180;27;96941;-50
2024/01/29 11:00:27;;;;;;;2.03;1.50;;;;;;;7.16;54.04;102483.53;5016230;27;97688;-51
2024/01/29 11:02:55;;;;;;;1.37;1.27;;;;;;;7.24;53.84;102468.28;5013677;27;97529;-51
2024/01/29 11:05:21;;;;;;;1.30;1.20;;;;;;;7.30;53.97;102470.00;5016509;27;97044;-51
2024/01/29 11:07:48;;;;;;;1.43;1.33;;;;;;;7.36;53.82;102464.66;5014207;27;97312;-51
2024/01/29 11:10:20;;;;;;;1.73;1.10;;;;;;;7.42;53.50;102471.16;5016230;27;97505;-51
2024/01/29 11:12:47;;;;;;;1.60;1.33;;;;;;;7.48;53.80;102461.84;5014178;27;97170;-51
2024/01/29 11:15:13;;;;;;;1.40;1.30;;;;;;;7.54;53.73;102460.03;5011345;27;97541;-51
2024/01/29 11:17:41;;;;;;;2.60;1.20;;;;;;;7.62;53.26;102460.53;5015203;27;96952;-51
2024/01/29 11:20:15;;;;;;;1.30;1.20;;;;;;;7.68;52.51;102467.00;5013240;27;96863;-51
2024/01/29 11:22:47;;;;;;;1.10;1.00;;;;;;;7.75;53.26;102466.72;5013577;27;96715;-51
2024/01/29 11:25:14;;;;;;;1.17;1.07;;;;;;;7.82;53.24;102463.69;5013074;27;96768;-50